Time;durP1;ratioP1;P1;durP2;ratioP2;P2;SDS_P1;SDS_P2;PMS_P1;PMS_P2;Temp;Humidity;BMP_temperature;BMP_pressure;BME280_temperature;BME280_humidity;BME280_pressure;Samples;Min_cycle;Max_cycle;Signal;HPM_P1;HPM_P2
2024/02/05 00:00:33;;;;;;;1.42;0.80;;;;;;;9.06;69.84;97352.22;5014603;28;20478;-79
2024/02/05 00:03:01;;;;;;;0.68;0.68;;;;;;;9.06;69.51;97360.03;5015023;28;20057;-79
2024/02/05 00:05:29;;;;;;;1.15;0.90;;;;;;;9.04;69.26;97378.38;5019285;28;20034;-79
2024/02/05 00:07:57;;;;;;;1.48;1.00;;;;;;;9.02;69.16;97375.09;5036761;28;20042;-79
2024/02/05 00:10:26;;;;;;;1.50;0.75;;;;;;;8.99;69.24;97370.22;5036166;28;20088;-80
2024/02/05 00:12:53;;;;;;;1.40;0.85;;;;;;;8.97;69.14;97372.16;5034393;28;20073;-80
2024/02/05 00:15:21;;;;;;;2.42;0.80;;;;;;;8.96;68.90;97374.91;5018681;28;20050;-79
2024/02/05 00:17:50;;;;;;;0.98;0.80;;;;;;;8.95;69.26;97383.69;5015795;28;20046;-79
2024/02/05 00:20:18;;;;;;;1.98;0.80;;;;;;;8.94;69.31;97372.44;5015197;28;20136;-79
2024/02/05 00:22:46;;;;;;;0.70;0.60;;;;;;;8.94;69.48;97375.03;5014823;28;20079;-79
2024/02/05 00:25:14;;;;;;;2.58;0.95;;;;;;;8.92;69.37;97369.22;5014115;28;20519;-79
2024/02/05 00:27:42;;;;;;;0.90;0.80;;;;;;;8.91;69.42;97383.16;5013902;28;20520;-79
2024/02/05 00:30:10;;;;;;;1.23;0.80;;;;;;;8.87;69.44;97377.44;5013854;28;20049;-79
2024/02/05 00:32:39;;;;;;;1.48;1.05;;;;;;;8.86;69.62;97388.03;5014031;28;20088;-79
2024/02/05 00:35:08;;;;;;;1.38;1.10;;;;;;;8.83;69.79;97390.91;5013087;28;20104;-79
2024/02/05 00:37:36;;;;;;;3.70;1.20;;;;;;;8.81;69.85;97395.44;5012883;28;20554;-79
2024/02/05 00:40:06;;;;;;;1.00;0.90;;;;;;;8.78;69.93;97391.38;5013002;28;20064;-79
2024/02/05 00:42:34;;;;;;;0.77;0.77;;;;;;;8.76;69.85;97390.69;5013190;28;20058;-79
2024/02/05 00:45:02;;;;;;;0.73;0.73;;;;;;;8.75;69.57;97393.47;5013056;28;20056;-79
2024/02/05 00:47:30;;;;;;;1.02;0.90;;;;;;;8.77;70.30;97399.34;5013017;28;20049;-79
2024/02/05 00:49:57;;;;;;;1.17;1.00;;;;;;;8.75;69.94;97391.69;5012998;28;20107;-79
2024/02/05 00:52:27;;;;;;;1.45;0.77;;;;;;;8.75;70.97;97388.25;5012828;28;20161;-79
2024/02/05 00:54:55;;;;;;;1.52;1.15;;;;;;;8.75;70.36;97376.06;5013079;28;20054;-79
2024/02/05 00:57:26;;;;;;;0.80;0.80;;;;;;;8.79;71.04;97384.38;5013367;28;20056;-79
2024/02/05 00:59:54;;;;;;;2.28;0.90;;;;;;;8.81;70.67;97382.44;5013123;28;20133;-79
2024/02/05 01:02:21;;;;;;;2.13;0.75;;;;;;;8.79;70.21;97374.81;5012968;28;20400;-79
2024/02/05 01:04:50;;;;;;;1.00;0.82;;;;;;;8.81;70.43;97379.84;5012495;28;20054;-79
2024/02/05 01:07:18;;;;;;;1.13;0.73;;;;;;;8.81;70.58;97382.44;5012547;28;20132;-79
2024/02/05 01:09:48;;;;;;;0.80;0.73;;;;;;;8.79;69.90;97387.81;5012851;28;20050;-79
2024/02/05 01:12:16;;;;;;;0.60;0.60;;;;;;;8.79;70.58;97392.16;5012616;28;20108;-79
2024/02/05 01:14:44;;;;;;;1.10;0.65;;;;;;;8.78;70.33;97398.34;5012565;28;20060;-79
2024/02/05 01:17:11;;;;;;;0.70;0.60;;;;;;;8.79;70.06;97399.97;5012363;28;20053;-79
2024/02/05 01:19:39;;;;;;;0.82;0.60;;;;;;;8.75;69.75;97398.66;5012644;28;20057;-79
2024/02/05 01:22:07;;;;;;;0.68;0.68;;;;;;;8.73;70.07;97398.81;5012378;28;20053;-79
2024/02/05 01:24:35;;;;;;;0.70;0.70;;;;;;;8.73;70.02;97400.59;5012502;28;20054;-79
2024/02/05 01:27:04;;;;;;;2.30;1.20;;;;;;;8.73;69.81;97403.22;5012366;28;20046;-79
2024/02/05 01:29:31;;;;;;;0.77;0.77;;;;;;;8.70;69.66;97404.28;5012462;28;20421;-79
2024/02/05 01:31:59;;;;;;;1.55;0.73;;;;;;;8.69;69.97;97409.66;5011639;28;20451;-79
2024/02/05 01:34:26;;;;;;;1.00;0.90;;;;;;;8.66;70.11;97400.38;5009397;28;20137;-79
2024/02/05 01:36:54;;;;;;;1.00;0.90;;;;;;;8.67;70.04;97404.59;5009479;28;20590;-79
2024/02/05 01:39:22;;;;;;;1.02;0.98;;;;;;;8.64;70.00;97403.13;5009994;28;20053;-79
2024/02/05 01:41:49;;;;;;;0.55;0.55;;;;;;;8.60;70.31;97404.38;5010859;28;20109;-79
2024/02/05 01:44:18;;;;;;;1.02;0.90;;;;;;;8.60;69.99;97407.00;5030446;28;20049;-79
2024/02/05 01:46:46;;;;;;;1.75;1.05;;;;;;;8.58;69.99;97403.72;5032553;28;20078;-79
2024/02/05 01:49:14;;;;;;;1.40;0.80;;;;;;;8.58;69.99;97408.13;5033132;28;20046;-79
2024/02/05 01:51:46;;;;;;;0.43;0.43;;;;;;;8.55;69.81;97414.44;5005192;28;20042;-79
2024/02/05 01:54:16;;;;;;;1.42;0.63;;;;;;;8.52;70.08;97406.09;5014519;28;20503;-79
2024/02/05 01:56:45;;;;;;;0.70;0.60;;;;;;;8.48;70.10;97415.97;5003962;28;20054;-79
2024/02/05 01:59:13;;;;;;;0.98;0.70;;;;;;;8.44;70.31;97417.25;4999515;28;20077;-79
2024/02/05 02:01:42;;;;;;;0.98;0.77;;;;;;;8.43;70.30;97424.22;4997454;28;20046;-79
2024/02/05 02:04:10;;;;;;;0.88;0.80;;;;;;;8.42;70.25;97413.97;4995977;28;20054;-79
2024/02/05 02:06:41;;;;;;;1.25;0.75;;;;;;;8.39;70.26;97419.44;4995739;28;20105;-79
2024/02/05 02:09:13;;;;;;;1.38;0.70;;;;;;;8.36;70.32;97409.34;4999334;28;20042;-79
2024/02/05 02:11:41;;;;;;;0.73;0.47;;;;;;;8.34;70.43;97416.47;4997193;28;20503;-79
2024/02/05 02:14:09;;;;;;;0.85;0.80;;;;;;;8.32;70.69;97429.59;4996718;28;20050;-78
2024/02/05 02:16:37;;;;;;;3.45;0.60;;;;;;;8.27;71.24;97418.03;4995392;28;20199;-79
2024/02/05 02:19:19;;;;;;;0.55;0.50;;;;;;;8.24;72.21;97417.34;4995508;28;20480;-79
2024/02/05 02:21:57;;;;;;;0.50;0.40;;;;;;;8.21;72.04;97425.44;4996101;28;20051;-79
2024/02/05 02:24:27;;;;;;;1.75;0.40;;;;;;;8.17;71.81;97408.50;4996390;28;20834;-79
2024/02/05 02:26:54;;;;;;;1.23;0.50;;;;;;;8.15;71.87;97420.81;4996635;28;20495;-79
2024/02/05 02:29:22;;;;;;;0.85;0.40;;;;;;;8.12;71.67;97417.69;4996425;28;20511;-79
2024/02/05 02:31:56;;;;;;;0.32;0.32;;;;;;;8.08;72.02;97416.34;4996446;28;20085;-79
2024/02/05 02:34:30;;;;;;;0.50;0.50;;;;;;;8.04;72.09;97415.81;4995825;28;20054;-79
2024/02/05 02:37:05;;;;;;;1.10;0.52;;;;;;;8.02;71.67;97417.75;4996061;28;20050;-79
2024/02/05 02:39:39;;;;;;;2.08;0.50;;;;;;;8.01;72.13;97405.72;4995808;28;20051;-79
2024/02/05 02:42:09;;;;;;;0.50;0.50;;;;;;;8.00;72.04;97404.06;4996135;28;20055;-79
2024/02/05 02:44:38;;;;;;;0.40;0.40;;;;;;;8.00;71.75;97401.47;4996071;28;20483;-79
2024/02/05 02:47:06;;;;;;;0.30;0.30;;;;;;;8.00;71.90;97393.69;4996201;28;20507;-79
2024/02/05 02:49:34;;;;;;;0.30;0.30;;;;;;;8.00;71.72;97397.13;4995748;28;20506;-79
2024/02/05 02:52:02;;;;;;;0.30;0.20;;;;;;;8.01;71.81;97400.53;4996238;28;20093;-79
2024/02/05 02:54:30;;;;;;;0.40;0.40;;;;;;;8.00;71.93;97409.28;4995458;28;20051;-79
2024/02/05 02:56:58;;;;;;;0.40;0.40;;;;;;;8.00;72.18;97409.28;4995276;28;20056;-79
2024/02/05 02:59:27;;;;;;;0.40;0.20;;;;;;;8.00;71.71;97399.72;4995477;28;20069;-79
2024/02/05 03:01:54;;;;;;;1.20;0.40;;;;;;;8.00;71.91;97410.13;4995095;28;20085;-79
2024/02/05 03:04:22;;;;;;;1.38;0.20;;;;;;;8.00;71.89;97401.47;4995288;28;20057;-79
2024/02/05 03:06:50;;;;;;;0.93;0.40;;;;;;;7.97;72.07;97407.78;4995419;28;20408;-79
2024/02/05 03:09:18;;;;;;;1.52;0.35;;;;;;;7.97;72.48;97401.78;4995534;28;20050;-79
2024/02/05 03:11:45;;;;;;;1.70;0.60;;;;;;;7.99;73.00;97412.84;4995132;28;20054;-79
2024/02/05 03:14:14;;;;;;;1.50;0.38;;;;;;;7.99;73.04;97418.84;4994926;28;20483;-79
2024/02/05 03:16:42;;;;;;;0.85;0.65;;;;;;;7.99;72.90;97411.06;4995391;28;20114;-79
2024/02/05 03:19:09;;;;;;;0.90;0.57;;;;;;;8.00;73.61;97412.72;4994911;28;20050;-79
2024/02/05 03:21:37;;;;;;;0.60;0.40;;;;;;;8.02;72.96;97415.97;4995045;28;20562;-79
2024/02/05 03:24:05;;;;;;;0.50;0.45;;;;;;;8.03;73.05;97432.38;4994801;28;20058;-79
2024/02/05 03:26:33;;;;;;;0.50;0.50;;;;;;;8.03;72.94;97420.22;4994817;28;20114;-79
2024/02/05 03:29:01;;;;;;;0.98;0.40;;;;;;;8.03;73.04;97435.00;4994995;28;20050;-79
2024/02/05 03:31:29;;;;;;;0.30;0.30;;;;;;;8.05;74.17;97433.88;5000431;28;20057;-79
2024/02/05 03:33:57;;;;;;;0.40;0.40;;;;;;;8.04;73.35;97441.81;5008660;28;20081;-79
2024/02/05 03:36:25;;;;;;;0.50;0.50;;;;;;;8.03;73.35;97432.38;5008232;28;20078;-79
2024/02/05 03:38:52;;;;;;;1.30;0.80;;;;;;;8.04;73.85;97437.41;5008711;28;20068;-79
2024/02/05 03:41:20;;;;;;;1.20;0.70;;;;;;;8.04;73.54;97439.19;5008935;28;20074;-79
2024/02/05 03:43:48;;;;;;;0.68;0.68;;;;;;;8.03;73.95;97432.38;5009052;28;20561;-79
2024/02/05 03:46:15;;;;;;;0.50;0.50;;;;;;;8.04;73.40;97436.59;5008570;28;20419;-79
2024/02/05 03:48:51;;;;;;;0.43;0.40;;;;;;;8.06;74.59;97452.88;4996252;28;20058;-79
2024/02/05 03:51:19;;;;;;;0.93;0.80;;;;;;;8.04;73.62;97447.00;4994800;28;20054;-79
2024/02/05 03:53:47;;;;;;;2.20;0.68;;;;;;;8.03;73.30;97453.16;4994275;28;20058;-79
2024/02/05 03:56:16;;;;;;;1.33;0.80;;;;;;;8.01;74.13;97437.72;4994767;28;20046;-79
2024/02/05 03:58:44;;;;;;;0.73;0.50;;;;;;;8.03;74.04;97437.59;4994292;28;20490;-79
2024/02/05 04:01:11;;;;;;;1.58;0.60;;;;;;;8.04;74.59;97439.19;4994007;28;20582;-79
2024/02/05 04:03:39;;;;;;;0.73;0.70;;;;;;;8.03;74.61;97435.78;4994129;28;20046;-79
2024/02/05 04:06:09;;;;;;;0.80;0.80;;;;;;;8.01;74.53;97431.72;4994257;28;20058;-79
2024/02/05 04:08:36;;;;;;;1.45;0.63;;;;;;;8.00;74.61;97437.84;4994275;28;20050;-79
2024/02/05 04:11:04;;;;;;;1.20;0.80;;;;;;;8.00;74.90;97436.09;4994030;28;20508;-79
2024/02/05 04:13:32;;;;;;;1.48;0.70;;;;;;;8.02;74.70;97438.53;4994114;28;20057;-79
2024/02/05 04:15:59;;;;;;;1.42;0.80;;;;;;;8.01;74.92;97444.69;4993977;28;20056;-79
2024/02/05 04:18:27;;;;;;;1.20;1.05;;;;;;;7.98;74.40;97432.81;4994034;28;20054;-79
2024/02/05 04:20:57;;;;;;;0.60;0.60;;;;;;;7.96;74.24;97439.09;4993846;28;20157;-79
2024/02/05 04:23:27;;;;;;;0.63;0.63;;;;;;;7.92;74.46;97440.38;4993767;28;20108;-79
2024/02/05 04:25:55;;;;;;;0.50;0.50;;;;;;;7.88;74.67;97439.03;4994122;28;20047;-79
2024/02/05 04:28:23;;;;;;;2.15;0.70;;;;;;;7.87;74.64;97446.00;4994008;28;20056;-79
2024/02/05 04:30:51;;;;;;;0.38;0.35;;;;;;;7.86;74.84;97431.38;4993919;28;20520;-79
2024/02/05 04:33:18;;;;;;;0.80;0.60;;;;;;;7.87;75.06;97446.00;4993466;28;20129;-79
2024/02/05 04:35:47;;;;;;;0.60;0.60;;;;;;;7.88;75.08;97442.44;4993913;28;20109;-79
2024/02/05 04:38:14;;;;;;;0.30;0.30;;;;;;;7.89;74.91;97443.25;4993689;28;20058;-79
2024/02/05 04:40:43;;;;;;;1.48;0.73;;;;;;;7.89;74.75;97445.84;4993412;28;20046;-79
2024/02/05 04:43:11;;;;;;;0.65;0.50;;;;;;;7.88;74.85;97447.63;4993695;28;20141;-79
2024/02/05 04:45:39;;;;;;;0.68;0.52;;;;;;;7.89;74.79;97453.63;4993488;28;20047;-79
2024/02/05 04:48:07;;;;;;;1.40;1.02;;;;;;;7.87;75.14;97440.81;4993248;28;20058;-79
2024/02/05 04:50:34;;;;;;;0.98;0.60;;;;;;;7.87;75.00;97445.16;4994431;28;20046;-79
2024/02/05 04:53:02;;;;;;;0.80;0.57;;;;;;;7.86;74.40;97451.34;5005019;28;20112;-79
2024/02/05 04:55:29;;;;;;;1.45;0.55;;;;;;;7.84;74.64;97452.28;5008792;28;20137;-79
2024/02/05 04:57:59;;;;;;;0.68;0.50;;;;;;;7.86;74.73;97459.13;5002066;28;20066;-79
2024/02/05 05:00:26;;;;;;;0.70;0.60;;;;;;;7.84;74.53;97454.88;5003505;28;20054;-79
2024/02/05 05:02:54;;;;;;;0.85;0.68;;;;;;;7.86;74.58;97465.13;5004664;28;20046;-79
2024/02/05 05:05:21;;;;;;;1.52;0.40;;;;;;;7.88;74.23;97467.59;5003421;28;20487;-79
2024/02/05 05:07:49;;;;;;;1.08;0.50;;;;;;;7.89;74.90;97464.84;5002595;28;20046;-79
2024/02/05 05:10:17;;;;;;;0.50;0.50;;;;;;;7.90;74.71;97465.69;5003145;28;20050;-81
2024/02/05 05:12:44;;;;;;;0.50;0.50;;;;;;;7.92;74.57;97471.56;5003633;28;20070;-80
2024/02/05 05:15:16;;;;;;;0.68;0.50;;;;;;;7.90;73.74;97471.69;5003579;28;20110;-79
2024/02/05 05:17:44;;;;;;;0.50;0.50;;;;;;;7.90;73.88;97470.88;5003391;28;20495;-79
2024/02/05 05:20:12;;;;;;;3.33;0.95;;;;;;;7.89;74.01;97466.63;5006674;28;20042;-79
2024/02/05 05:22:40;;;;;;;1.27;0.80;;;;;;;7.90;74.04;97463.09;5007980;28;20073;-79
2024/02/05 05:25:08;;;;;;;0.65;0.65;;;;;;;7.91;73.70;97472.50;5002505;28;20114;-79
2024/02/05 05:27:36;;;;;;;1.50;0.77;;;;;;;7.90;74.02;97463.09;5006484;28;20046;-79
2024/02/05 05:30:05;;;;;;;0.85;0.50;;;;;;;7.89;74.17;97464.03;5006129;28;20050;-79
2024/02/05 05:32:33;;;;;;;0.70;0.55;;;;;;;7.88;74.38;97478.81;5028825;28;20129;-79
2024/02/05 05:35:01;;;;;;;1.63;0.80;;;;;;;7.88;73.83;97467.59;5021474;28;20677;-78
2024/02/05 05:37:30;;;;;;;2.70;1.10;;;;;;;7.87;73.71;97468.53;5020862;28;20045;-79
2024/02/05 05:39:57;;;;;;;0.93;0.80;;;;;;;7.84;73.96;97462.69;5025493;28;20140;-79
2024/02/05 05:42:25;;;;;;;3.20;0.75;;;;;;;7.84;74.29;97467.88;5029244;28;20056;-79
2024/02/05 05:44:54;;;;;;;3.45;1.20;;;;;;;7.83;73.92;97465.44;5028744;28;20077;-78
2024/02/05 05:47:21;;;;;;;3.38;1.20;;;;;;;7.81;73.87;97473.38;5028176;28;20088;-79
2024/02/05 05:49:50;;;;;;;1.38;0.60;;;;;;;7.82;74.16;97463.78;5030219;28;20057;-79
2024/02/05 05:52:19;;;;;;;6.55;1.40;;;;;;;7.80;74.15;97458.72;5027577;28;20106;-78
2024/02/05 05:54:46;;;;;;;1.52;0.95;;;;;;;7.79;74.13;97458.88;5026214;28;20438;-79
2024/02/05 05:57:14;;;;;;;0.68;0.57;;;;;;;7.76;73.97;97466.94;5019301;28;20053;-79
2024/02/05 05:59:42;;;;;;;1.80;1.20;;;;;;;7.76;74.24;97467.78;5028960;28;20056;-79
2024/02/05 06:02:10;;;;;;;3.05;1.90;;;;;;;7.77;74.08;97460.81;5026529;28;20057;-79
2024/02/05 06:04:37;;;;;;;1.23;0.73;;;;;;;7.77;73.60;97468.59;5025848;28;20050;-79
2024/02/05 06:07:08;;;;;;;3.80;0.70;;;;;;;7.74;73.92;97469.72;5000980;28;20076;-79
2024/02/05 06:09:36;;;;;;;0.95;0.70;;;;;;;7.74;73.84;97466.28;4994814;28;20058;-78
2024/02/05 06:12:04;;;;;;;1.27;0.70;;;;;;;7.74;74.28;97474.91;4996510;28;20543;-78
2024/02/05 06:14:32;;;;;;;0.60;0.60;;;;;;;7.74;74.03;97476.66;5001070;28;20124;-78
2024/02/05 06:16:59;;;;;;;1.67;0.50;;;;;;;7.74;74.24;97472.31;5015609;28;20077;-78
2024/02/05 06:19:27;;;;;;;1.35;0.47;;;;;;;7.75;74.06;97479.13;5016175;28;20506;-79
2024/02/05 06:21:55;;;;;;;0.50;0.50;;;;;;;7.77;74.11;97473.78;5017675;28;20128;-79
2024/02/05 06:24:24;;;;;;;1.40;0.60;;;;;;;7.78;74.05;97467.63;5036017;28;20084;-78
2024/02/05 06:26:51;;;;;;;0.90;0.90;;;;;;;7.80;74.07;97470.91;5020279;28;20046;-79
2024/02/05 06:29:19;;;;;;;2.05;0.70;;;;;;;7.81;73.89;97464.75;5026885;28;20113;-79
2024/02/05 06:31:46;;;;;;;1.27;0.75;;;;;;;7.80;73.55;97461.31;5017717;28;20209;-78
2024/02/05 06:34:14;;;;;;;1.25;1.00;;;;;;;7.80;74.04;97455.31;5015858;28;20088;-79
2024/02/05 06:36:42;;;;;;;0.98;0.75;;;;;;;7.80;73.75;97456.13;5016520;28;20508;-79
2024/02/05 06:39:10;;;;;;;1.30;0.80;;;;;;;7.80;73.62;97457.91;5015856;28;20104;-79
2024/02/05 06:41:39;;;;;;;0.93;0.70;;;;;;;7.80;73.29;97460.50;5000171;28;20046;-77
2024/02/05 06:44:07;;;;;;;1.90;0.50;;;;;;;7.77;73.94;97456.41;4997255;28;20058;-78
2024/02/05 06:46:34;;;;;;;1.73;0.93;;;;;;;7.74;73.76;97446.34;5008845;28;20050;-79
2024/02/05 06:49:02;;;;;;;2.70;0.75;;;;;;;7.70;73.59;97450.16;5005980;28;20077;-78
2024/02/05 06:51:29;;;;;;;4.00;0.73;;;;;;;7.68;73.84;97451.28;4996258;28;20137;-78
2024/02/05 06:53:57;;;;;;;3.95;0.60;;;;;;;7.67;73.91;97450.44;4997015;28;20134;-78
2024/02/05 06:56:24;;;;;;;4.50;0.75;;;;;;;7.69;74.17;97447.72;4996290;28;20052;-78
2024/02/05 06:58:55;;;;;;;1.10;0.60;;;;;;;7.68;73.87;97446.91;4998440;28;20057;-78
2024/02/05 07:01:23;;;;;;;1.75;0.70;;;;;;;7.68;73.71;97459.88;5003820;28;20056;-78
2024/02/05 07:03:51;;;;;;;2.63;0.85;;;;;;;7.66;73.79;97456.59;5007834;28;20050;-78
2024/02/05 07:06:19;;;;;;;3.97;0.80;;;;;;;7.67;74.08;97466.03;5000595;28;20042;-79
2024/02/05 07:08:46;;;;;;;1.08;0.98;;;;;;;7.68;73.70;97466.84;5003973;28;20123;-78
2024/02/05 07:11:14;;;;;;;1.75;0.50;;;;;;;7.68;73.42;97472.88;5002956;28;20133;-78
2024/02/05 07:13:41;;;;;;;0.55;0.50;;;;;;;7.69;73.49;97474.50;4996994;28;20050;-78
2024/02/05 07:16:15;;;;;;;1.13;0.80;;;;;;;7.72;73.50;97465.59;5004730;28;20065;-77
2024/02/05 07:18:43;;;;;;;2.83;0.88;;;;;;;7.76;74.20;97477.34;5006096;28;20052;-78
2024/02/05 07:21:11;;;;;;;1.88;0.70;;;;;;;7.79;73.72;97493.47;5034286;28;20046;-78
2024/02/05 07:23:39;;;;;;;2.83;0.95;;;;;;;7.80;72.80;97489.06;5021421;28;20050;-78
2024/02/05 07:26:07;;;;;;;0.85;0.77;;;;;;;7.77;72.56;97494.56;5006894;28;20128;-77
2024/02/05 07:28:34;;;;;;;2.28;0.98;;;;;;;7.78;72.69;97493.59;5002928;28;20594;-78
2024/02/05 07:31:02;;;;;;;1.13;0.80;;;;;;;7.79;72.68;97501.25;4998466;28;20464;-78
2024/02/05 07:33:31;;;;;;;2.88;0.80;;;;;;;7.78;72.08;97499.63;5000781;28;20078;-78
2024/02/05 07:35:59;;;;;;;4.05;0.70;;;;;;;7.79;72.59;97498.66;5001526;28;20507;-79
2024/02/05 07:38:27;;;;;;;2.90;0.90;;;;;;;7.81;72.52;97493.34;4995942;28;20137;-78
2024/02/05 07:40:54;;;;;;;3.90;0.65;;;;;;;7.82;72.70;97492.34;4996736;28;20054;-78
2024/02/05 07:43:22;;;;;;;0.82;0.50;;;;;;;7.83;72.88;97489.63;5005343;28;20110;-78
2024/02/05 07:45:50;;;;;;;2.67;0.68;;;;;;;7.83;72.34;97497.41;5021288;28;20045;-79
2024/02/05 07:48:18;;;;;;;0.88;0.50;;;;;;;7.84;72.42;97478.25;5030670;28;20069;-79
2024/02/05 07:50:47;;;;;;;3.42;0.80;;;;;;;7.85;71.65;97484.28;5012073;28;20054;-79
2024/02/05 07:53:14;;;;;;;0.85;0.73;;;;;;;7.82;71.71;97489.75;4997655;28;20082;-79
2024/02/05 07:55:42;;;;;;;3.55;0.80;;;;;;;7.83;71.49;97489.63;4994411;28;20057;-79
2024/02/05 07:58:10;;;;;;;1.15;0.70;;;;;;;7.86;71.97;97491.13;5013234;28;20056;-78
2024/02/05 08:00:39;;;;;;;1.48;0.45;;;;;;;7.90;72.63;97491.66;4995778;28;20050;-79
2024/02/05 08:03:07;;;;;;;0.82;0.47;;;;;;;7.91;71.70;97499.28;4995175;28;20523;-79
2024/02/05 08:05:34;;;;;;;1.70;0.60;;;;;;;7.94;71.67;97498.22;4994148;28;20448;-79
2024/02/05 08:08:04;;;;;;;0.82;0.80;;;;;;;7.94;71.58;97511.19;4995933;28;20050;-78
2024/02/05 08:10:32;;;;;;;1.17;0.63;;;;;;;7.96;71.34;97507.50;5011596;28;20045;-77
2024/02/05 08:13:00;;;;;;;1.40;0.63;;;;;;;7.99;71.07;97511.56;4994179;28;20050;-79
2024/02/05 08:15:28;;;;;;;3.75;0.80;;;;;;;7.99;71.63;97506.38;4994322;28;20058;-79
2024/02/05 08:17:55;;;;;;;2.13;0.63;;;;;;;8.00;70.88;97503.66;4995004;28;20050;-79
2024/02/05 08:20:23;;;;;;;1.67;0.95;;;;;;;8.01;71.55;97500.06;5005795;28;20084;-79
2024/02/05 08:22:52;;;;;;;1.05;0.63;;;;;;;8.04;70.85;97504.16;5011427;28;20085;-80
2024/02/05 08:25:21;;;;;;;0.73;0.45;;;;;;;8.04;70.45;97509.38;5013851;28;20685;-79
2024/02/05 08:27:49;;;;;;;1.15;0.95;;;;;;;8.04;70.76;97517.16;5029000;28;20052;-78
2024/02/05 08:30:17;;;;;;;2.28;0.50;;;;;;;8.04;70.40;97514.56;5021705;28;20081;-79
2024/02/05 08:32:44;;;;;;;0.73;0.73;;;;;;;8.05;71.08;97500.63;4995785;28;20109;-78
2024/02/05 08:35:12;;;;;;;2.00;0.75;;;;;;;8.10;70.93;97503.59;4994148;28;20046;-78
2024/02/05 08:37:39;;;;;;;3.60;0.85;;;;;;;8.15;71.74;97508.34;4997768;28;20717;-78
2024/02/05 08:40:09;;;;;;;2.47;1.30;;;;;;;8.15;70.54;97500.56;4998697;28;20124;-78
2024/02/05 08:42:38;;;;;;;1.05;0.63;;;;;;;8.15;70.97;97506.56;4999289;28;20165;-78
2024/02/05 08:45:07;;;;;;;2.17;0.65;;;;;;;8.16;70.43;97500.44;4996194;28;20251;-78
2024/02/05 08:47:34;;;;;;;3.08;0.80;;;;;;;8.17;71.05;97499.44;5013690;28;20093;-79
2024/02/05 08:50:02;;;;;;;1.42;0.85;;;;;;;8.17;70.45;97511.63;5015040;28;20570;-79
2024/02/05 08:52:30;;;;;;;2.15;1.00;;;;;;;8.18;69.96;97500.28;4995571;28;20450;-75
2024/02/05 08:54:58;;;;;;;2.13;1.20;;;;;;;8.17;70.08;97499.44;5014569;28;20495;-75
2024/02/05 08:57:25;;;;;;;1.85;1.25;;;;;;;8.18;70.17;97495.09;5007656;28;20454;-76
2024/02/05 08:59:54;;;;;;;1.98;1.08;;;;;;;8.20;70.19;97499.19;4994784;28;20133;-76
2024/02/05 09:02:22;;;;;;;1.58;0.70;;;;;;;8.22;70.21;97505.06;4994492;28;20042;-76
2024/02/05 09:04:50;;;;;;;1.23;0.80;;;;;;;8.22;69.87;97497.25;4993644;28;20043;-77
2024/02/05 09:07:18;;;;;;;1.13;0.65;;;;;;;8.23;69.93;97501.47;4994021;28;20046;-76
2024/02/05 09:09:45;;;;;;;2.20;0.73;;;;;;;8.24;69.75;97505.72;4995892;28;20058;-78
2024/02/05 09:12:13;;;;;;;0.77;0.47;;;;;;;8.25;69.71;97509.94;4994139;28;20049;-79
2024/02/05 09:14:41;;;;;;;1.10;0.65;;;;;;;8.28;69.75;97501.03;5001516;28;20058;-78
2024/02/05 09:17:10;;;;;;;1.60;0.80;;;;;;;8.29;69.98;97500.09;5008622;28;20046;-78
2024/02/05 09:19:37;;;;;;;1.63;0.80;;;;;;;8.32;69.47;97504.19;5008209;28;20097;-80
2024/02/05 09:22:05;;;;;;;2.15;0.80;;;;;;;8.32;69.72;97499.78;4993640;28;20049;-79
2024/02/05 09:24:33;;;;;;;3.67;0.68;;;;;;;8.35;70.62;97507.31;5003682;28;20050;-78
2024/02/05 09:27:00;;;;;;;2.13;0.68;;;;;;;8.38;69.75;97506.22;4997776;28;20105;-77
2024/02/05 09:29:28;;;;;;;1.23;0.55;;;;;;;8.38;69.98;97516.59;4993242;28;20133;-78
2024/02/05 09:31:55;;;;;;;4.50;0.70;;;;;;;8.35;69.06;97512.53;5006252;28;20517;-79
2024/02/05 09:34:24;;;;;;;7.18;1.02;;;;;;;8.30;69.21;97519.09;5003325;28;20050;-78
2024/02/05 09:36:52;;;;;;;0.70;0.70;;;;;;;8.30;69.06;97519.09;4994501;28;20448;-79
2024/02/05 09:39:20;;;;;;;2.67;1.05;;;;;;;8.31;69.83;97521.56;4995069;28;20050;-79
2024/02/05 09:41:48;;;;;;;3.60;0.90;;;;;;;8.34;69.56;97520.44;4994096;28;20101;-78
2024/02/05 09:44:16;;;;;;;2.60;0.60;;;;;;;8.36;69.26;97523.72;4993112;28;20554;-79
2024/02/05 09:46:48;;;;;;;2.90;0.70;;;;;;;8.37;70.06;97526.16;5006754;28;20046;-80
2024/02/05 09:49:18;;;;;;;0.85;0.68;;;;;;;8.38;68.98;97527.00;5010178;28;20136;-79
2024/02/05 09:51:48;;;;;;;2.00;0.90;;;;;;;8.41;69.86;97521.53;5012727;28;20050;-79
2024/02/05 09:54:16;;;;;;;2.95;0.90;;;;;;;8.44;69.10;97521.25;5002259;28;20058;-79
2024/02/05 09:56:50;;;;;;;1.85;0.75;;;;;;;8.43;68.32;97519.59;4992999;28;20055;-79
2024/02/05 09:59:18;;;;;;;3.53;0.75;;;;;;;8.47;69.84;97509.75;4993105;28;20054;-79
2024/02/05 10:01:46;;;;;;;1.02;0.73;;;;;;;8.52;70.32;97516.13;4992299;28;20496;-80
2024/02/05 10:04:16;;;;;;;2.75;0.60;;;;;;;8.57;69.27;97513.09;4992214;28;20411;-79
2024/02/05 10:06:47;;;;;;;2.55;0.70;;;;;;;8.56;68.40;97520.06;4991921;28;20082;-78
2024/02/05 10:09:16;;;;;;;2.92;0.70;;;;;;;8.60;70.15;97526.63;4992338;28;20065;-79
2024/02/05 10:11:47;;;;;;;2.35;1.00;;;;;;;8.64;70.28;97522.75;4992482;28;20580;-78
2024/02/05 10:14:15;;;;;;;2.83;0.73;;;;;;;8.68;69.75;97523.31;4992243;28;20053;-78
2024/02/05 10:16:43;;;;;;;1.63;0.85;;;;;;;8.68;69.19;97515.50;4991574;28;20125;-79
2024/02/05 10:19:11;;;;;;;3.00;1.05;;;;;;;8.70;68.25;97515.34;4995285;28;20050;-78
2024/02/05 10:21:38;;;;;;;3.28;0.93;;;;;;;8.71;68.46;97514.38;4995514;28;20431;-78
2024/02/05 10:24:12;;;;;;;2.92;0.70;;;;;;;8.72;67.71;97511.63;4995234;28;20136;-78
2024/02/05 10:26:41;;;;;;;6.38;1.23;;;;;;;8.74;68.50;97511.47;4995946;28;20105;-78
2024/02/05 10:29:10;;;;;;;4.53;1.25;;;;;;;8.77;68.83;97511.19;5001005;28;20529;-79
2024/02/05 10:31:47;;;;;;;1.77;0.85;;;;;;;8.81;68.27;97505.53;5006574;28;20038;-78
2024/02/05 10:34:16;;;;;;;1.77;0.95;;;;;;;8.84;67.98;97499.22;5013270;28;20111;-78
2024/02/05 10:36:44;;;;;;;2.35;1.05;;;;;;;8.88;68.07;97505.78;5028479;28;20046;-79
2024/02/05 10:39:19;;;;;;;3.00;1.15;;;;;;;8.91;67.52;97495.06;5026426;28;20081;-80
2024/02/05 10:41:48;;;;;;;5.80;1.00;;;;;;;8.95;67.66;97491.19;5029188;28;20042;-78
2024/02/05 10:44:15;;;;;;;2.30;0.80;;;;;;;8.95;67.64;97496.41;5025690;28;20124;-78
2024/02/05 10:47:02;;;;;;;4.07;1.10;;;;;;;8.98;67.76;97490.88;5012815;28;20042;-79
2024/02/05 10:49:30;;;;;;;4.18;1.05;;;;;;;9.04;67.37;97498.09;5008289;28;20570;-79
2024/02/05 10:52:00;;;;;;;6.43;1.00;;;;;;;9.10;66.72;97486.28;5000878;28;20054;-79
2024/02/05 10:54:29;;;;;;;2.50;1.00;;;;;;;9.20;66.44;97488.78;4996872;28;20455;-77
2024/02/05 10:56:59;;;;;;;4.57;1.30;;;;;;;9.31;67.04;97488.53;5020550;28;20050;-79
2024/02/05 10:59:27;;;;;;;3.70;0.90;;;;;;;9.43;66.42;97481.31;5026626;28;20081;-79
2024/02/05 11:02:02;;;;;;;3.75;1.10;;;;;;;9.57;68.27;97477.31;5032447;28;20053;-79
2024/02/05 11:04:31;;;;;;;6.10;1.35;;;;;;;9.77;65.31;97470.91;5002247;28;20046;-79
2024/02/05 11:07:05;;;;;;;5.47;1.75;;;;;;;9.96;64.31;97464.66;5000934;28;20054;-78
2024/02/05 11:09:35;;;;;;;7.20;1.50;;;;;;;10.13;64.01;97457.72;4995642;28;20055;-78
2024/02/05 11:12:07;;;;;;;2.65;0.93;;;;;;;10.35;62.72;97455.53;4995526;28;20050;-79
2024/02/05 11:14:37;;;;;;;5.95;1.50;;;;;;;10.59;62.97;97452.97;4996945;28;20114;-81
2024/02/05 11:17:07;;;;;;;1.52;0.90;;;;;;;10.85;62.20;97452.03;4997758;28;20046;-81
2024/02/05 11:19:38;;;;;;;2.60;0.98;;;;;;;11.10;63.18;97456.25;4998121;28;20054;-80
2024/02/05 11:22:11;;;;;;;5.28;1.20;;;;;;;11.38;63.56;97442.88;4997295;28;20129;-80
2024/02/05 11:24:42;;;;;;;;;;;;;;;11.62;63.05;97431.53;4995117;28;20047;-78
2024/02/05 11:27:11;;;;;;;2.33;0.90;;;;;;;11.88;61.95;97438.34;4994261;28;19964;-79
2024/02/05 11:29:42;;;;;;;5.72;1.50;;;;;;;12.11;59.82;97428.78;4994483;28;20487;-79
2024/02/05 11:32:10;;;;;;;4.35;1.02;;;;;;;12.39;59.81;97424.88;4995151;28;20129;-79
2024/02/05 11:34:42;;;;;;;3.63;0.88;;;;;;;12.62;59.12;97414.44;4995208;28;20133;-80
2024/02/05 11:37:10;;;;;;;2.75;0.80;;;;;;;12.82;59.08;97412.97;4994643;28;20492;-79
2024/02/05 11:39:44;;;;;;;4.30;1.75;;;;;;;13.03;57.58;97412.31;4994214;28;20042;-78
2024/02/05 11:42:17;;;;;;;2.95;1.00;;;;;;;13.23;57.52;97411.78;4995185;28;20109;-78
2024/02/05 11:44:47;;;;;;;2.75;1.33;;;;;;;13.39;56.20;97401.19;4994791;28;20085;-79
2024/02/05 11:47:15;;;;;;;1.58;0.95;;;;;;;13.57;56.17;97398.19;4995360;28;20074;-80